Time;durP1;ratioP1;P1;durP2;ratioP2;P2;SDS_P1;SDS_P2;PMS_P1;PMS_P2;Temp;Humidity;BMP_temperature;BMP_pressure;BME280_temperature;BME280_humidity;BME280_pressure;Samples;Min_cycle;Max_cycle;Signal;HPM_P1;HPM_P2
2023/03/17 00:01:34;;;;;;;11.57;5.90;;;;;;;;;;6337713;27;20044;-69
2023/03/17 00:05:01;;;;;;;10.93;5.38;;;;;;;;;;6341596;28;20055;-68
2023/03/17 00:08:10;;;;;;;10.73;5.82;;;;;;;;;;6338787;28;20352;-68
2023/03/17 00:11:15;;;;;;;10.48;4.97;;;;;;;;;;6338321;28;20086;-68
2023/03/17 00:14:17;;;;;;;8.20;5.72;;;;;;;;;;6337060;28;20101;-75
2023/03/17 00:17:19;;;;;;;149.23;66.35;;;;;;;;;;6340132;28;20063;-69
2023/03/17 00:20:25;;;;;;;140.73;61.35;;;;;;;;;;6337143;27;20051;-70
2023/03/17 00:23:27;;;;;;;47.05;22.48;;;;;;;;;;6342550;27;20055;-71
2023/03/17 00:26:30;;;;;;;214.15;95.07;;;;;;;;;;6340695;28;20051;-70
2023/03/17 00:29:35;;;;;;;21.50;11.88;;;;;;;;;;6337981;27;20351;-69
2023/03/17 00:32:37;;;;;;;9.60;5.75;;;;;;;;;;6338561;28;20047;-68
2023/03/17 00:35:40;;;;;;;6.70;4.68;;;;;;;;;;6325779;28;20075;-68
2023/03/17 00:38:42;;;;;;;8.57;5.20;;;;;;;;;;6328926;27;20055;-69
2023/03/17 00:41:48;;;;;;;9.02;4.88;;;;;;;;;;6334805;27;20086;-69
2023/03/17 00:48:13;;;;;;;7.43;4.63;;;;;;;;;;6337834;28;20036;-67
2023/03/17 00:51:18;;;;;;;8.35;4.88;;;;;;;;;;6338801;28;20060;-69
2023/03/17 00:54:21;;;;;;;9.07;4.72;;;;;;;;;;6338284;28;20146;-67
2023/03/17 00:57:24;;;;;;;8.45;4.97;;;;;;;;;;6324388;27;20059;-69
2023/03/17 01:00:31;;;;;;;8.23;4.82;;;;;;;;;;6338501;28;20109;-68
2023/03/17 01:03:33;;;;;;;7.85;4.88;;;;;;;;;;6338639;27;20079;-68
2023/03/17 01:06:35;;;;;;;7.97;4.85;;;;;;;;;;6334703;28;20371;-69
2023/03/17 01:09:37;;;;;;;7.13;4.75;;;;;;;;;;6338823;28;20250;-68
2023/03/17 01:12:40;;;;;;;8.30;4.45;;;;;;;;;;6337506;28;20292;-69
2023/03/17 01:15:44;;;;;;;8.82;4.60;;;;;;;;;;6339041;27;20233;-70
2023/03/17 01:18:46;;;;;;;;;;;;;;;;;;6339262;27;20390;-69
2023/03/17 01:25:13;;;;;;;9.25;4.78;;;;;;;;;;6328898;28;20047;-68
2023/03/17 01:28:18;;;;;;;7.97;4.88;;;;;;;;;;6339296;28;20050;-69
2023/03/17 01:31:22;;;;;;;8.38;4.90;;;;;;;;;;6336996;28;20340;-68
2023/03/17 01:34:24;;;;;;;6.07;4.13;;;;;;;;;;6340879;28;20059;-69
2023/03/17 01:40:49;;;;;;;9.18;4.60;;;;;;;;;;6305925;27;20043;-69
2023/03/17 01:52:07;;;;;;;10.32;5.35;;;;;;;;;;6214235;28;20046;-70
2023/03/17 01:55:29;;;;;;;8.95;5.68;;;;;;;;;;6232887;28;20086;-68
2023/03/17 01:58:32;;;;;;;9.15;4.95;;;;;;;;;;6235064;28;20095;-68
2023/03/17 02:01:38;;;;;;;10.27;5.22;;;;;;;;;;6237531;28;20065;-69
2023/03/17 02:04:40;;;;;;;8.65;5.30;;;;;;;;;;6233602;28;20054;-69
2023/03/17 02:07:48;;;;;;;8.75;5.38;;;;;;;;;;6235156;28;20662;-70
2023/03/17 02:10:51;;;;;;;8.15;5.05;;;;;;;;;;6234309;28;20071;-68
2023/03/17 02:13:57;;;;;;;10.15;4.93;;;;;;;;;;6229090;28;20387;-69
2023/03/17 02:17:00;;;;;;;8.95;5.60;;;;;;;;;;6236696;28;20056;-69
2023/03/17 02:20:28;;;;;;;13.10;5.17;;;;;;;;;;6236293;28;20289;-68
2023/03/17 02:23:31;;;;;;;11.20;5.32;;;;;;;;;;6234270;28;20605;-69
2023/03/17 02:26:34;;;;;;;9.98;5.63;;;;;;;;;;6244887;28;20053;-69
2023/03/17 02:29:36;;;;;;;7.32;5.10;;;;;;;;;;6340805;27;20115;-67
2023/03/17 02:32:39;;;;;;;11.77;6.15;;;;;;;;;;6344372;28;20058;-68
2023/03/17 02:35:46;;;;;;;8.95;5.18;;;;;;;;;;6340803;28;20059;-69
2023/03/17 02:39:23;;;;;;;6.93;4.80;;;;;;;;;;6341382;28;20052;-69
2023/03/17 02:42:25;;;;;;;8.82;5.20;;;;;;;;;;6242677;28;20049;-68
2023/03/17 02:45:27;;;;;;;9.23;5.43;;;;;;;;;;6241801;28;20097;-68
2023/03/17 02:52:40;;;;;;;12.20;5.55;;;;;;;;;;6203244;28;20058;-68
2023/03/17 02:55:53;;;;;;;7.60;4.75;;;;;;;;;;6087658;29;20292;-68
2023/03/17 02:59:01;;;;;;;12.80;5.82;;;;;;;;;;6088271;29;20060;-69
2023/03/17 03:02:17;;;;;;;9.25;5.57;;;;;;;;;;6097041;29;20357;-70
2023/03/17 03:05:25;;;;;;;7.93;5.43;;;;;;;;;;6098014;29;20187;-66
2023/03/17 03:08:30;;;;;;;9.88;5.53;;;;;;;;;;6095376;29;20097;-69
2023/03/17 03:11:33;;;;;;;9.75;5.45;;;;;;;;;;6098905;28;20154;-66
2023/03/17 03:18:39;;;;;;;9.60;5.28;;;;;;;;;;6107896;28;20134;-65
2023/03/17 03:21:47;;;;;;;8.48;5.18;;;;;;;;;;6130375;28;20051;-67
2023/03/17 03:25:03;;;;;;;9.63;6.00;;;;;;;;;;6131484;28;20071;-68
2023/03/17 03:28:08;;;;;;;9.32;5.63;;;;;;;;;;6108491;28;20051;-68
2023/03/17 03:31:12;;;;;;;11.30;5.82;;;;;;;;;;6176429;28;20050;-67
2023/03/17 03:34:15;;;;;;;10.57;5.88;;;;;;;;;;6255844;28;20064;-68
2023/03/17 03:37:35;;;;;;;;;;;;;;;;;;;;;
2023/03/17 03:44:26;;;;;;;;;;;;;;;;;;;;;
2023/03/17 03:47:28;;;;;;;8.93;6.20;;;;;;;;;;6201490;28;20054;-68
2023/03/17 03:50:33;;;;;;;8.82;6.05;;;;;;;;;;6357730;27;20051;-68
2023/03/17 03:53:35;;;;;;;10.00;6.25;;;;;;;;;;6349656;27;20054;-66
2023/03/17 04:05:09;;;;;;;10.02;5.97;;;;;;;;;;6172937;28;20082;-68
2023/03/17 04:08:15;;;;;;;9.32;5.32;;;;;;;;;;6214935;28;20320;-68
2023/03/17 04:11:20;;;;;;;8.07;5.28;;;;;;;;;;6260162;28;20049;-69
2023/03/17 04:14:22;;;;;;;12.70;5.78;;;;;;;;;;6255646;28;20215;-68
2023/03/17 04:18:18;;;;;;;;;;;;;;;;;;;;;
2023/03/17 04:21:28;;;;;;;9.57;5.25;;;;;;;;;;6186046;28;20054;-68
2023/03/17 04:24:38;;;;;;;10.13;5.65;;;;;;;;;;6200768;28;20065;-69
2023/03/17 04:27:58;;;;;;;9.13;5.28;;;;;;;;;;6196726;28;20054;-68
2023/03/17 04:31:01;;;;;;;8.65;5.32;;;;;;;;;;6200390;28;20326;-68
2023/03/17 04:34:03;;;;;;;9.35;5.60;;;;;;;;;;6192503;28;20058;-68
2023/03/17 04:40:41;;;;;;;10.05;5.45;;;;;;;;;;6279409;28;20047;-68
2023/03/17 04:43:56;;;;;;;8.55;5.35;;;;;;;;;;6308511;28;20050;-68
2023/03/17 04:46:58;;;;;;;10.45;5.57;;;;;;;;;;6273109;28;21201;-68
2023/03/17 04:50:26;;;;;;;8.32;5.50;;;;;;;;;;6265616;28;20044;-67
2023/03/17 04:53:29;;;;;;;10.15;5.32;;;;;;;;;;6248943;28;20041;-67
2023/03/17 04:56:31;;;;;;;10.00;5.17;;;;;;;;;;6269968;28;20128;-69
2023/03/17 04:59:33;;;;;;;10.05;5.60;;;;;;;;;;6279021;28;20060;-68
2023/03/17 05:06:33;;;;;;;11.57;5.80;;;;;;;;;;6280869;28;20237;-68
2023/03/17 05:09:52;;;;;;;;;;;;;;;;;;6280457;28;20076;-68
2023/03/17 05:12:55;;;;;;;11.20;4.97;;;;;;;;;;6277524;28;19933;-68
2023/03/17 05:15:59;;;;;;;9.60;5.00;;;;;;;;;;6290320;28;20053;-68
2023/03/17 05:19:03;;;;;;;8.32;4.75;;;;;;;;;;6313016;28;20063;-65
2023/03/17 05:22:05;;;;;;;11.23;5.47;;;;;;;;;;6339326;28;20055;-67
2023/03/17 05:25:08;;;;;;;8.70;5.40;;;;;;;;;;6326941;27;20153;-68
2023/03/17 05:28:12;;;;;;;9.50;5.15;;;;;;;;;;6335700;27;20062;-66
2023/03/17 05:31:17;;;;;;;8.55;4.90;;;;;;;;;;6315922;28;20059;-67
2023/03/17 05:34:40;;;;;;;12.05;5.22;;;;;;;;;;6339060;27;20056;-66
2023/03/17 05:37:45;;;;;;;10.20;5.20;;;;;;;;;;6324122;27;20046;-70
2023/03/17 05:40:53;;;;;;;9.52;5.30;;;;;;;;;;6328130;28;20059;-73
2023/03/17 05:47:32;;;;;;;12.18;5.63;;;;;;;;;;6322313;27;20071;-67
2023/03/17 05:50:50;;;;;;;;;;;;;;;;;;;;;
2023/03/17 05:53:58;;;;;;;9.00;4.90;;;;;;;;;;6333941;28;20040;-72
2023/03/17 05:57:00;;;;;;;13.02;5.57;;;;;;;;;;6336909;27;20056;-73
2023/03/17 06:00:11;;;;;;;12.13;5.43;;;;;;;;;;6326017;28;20274;-70
2023/03/17 06:03:40;;;;;;;8.25;4.93;;;;;;;;;;6321518;27;20432;-71
2023/03/17 06:10:02;;;;;;;9.15;4.95;;;;;;;;;;6213595;28;20085;-70
2023/03/17 06:13:37;;;;;;;10.10;5.03;;;;;;;;;;6234151;28;20334;-70
2023/03/17 06:16:52;;;;;;;10.35;4.95;;;;;;;;;;6210393;28;20307;-70
2023/03/17 06:20:35;;;;;;;8.95;5.35;;;;;;;;;;6205311;28;20128;-70
2023/03/17 06:23:37;;;;;;;8.43;4.97;;;;;;;;;;6203985;28;20155;-72
2023/03/17 06:27:01;;;;;;;;;;;;;;;;;;;;;
2023/03/17 06:30:15;;;;;;;;;;;;;;;;;;;;;
2023/03/17 06:33:19;;;;;;;10.33;4.80;;;;;;;;;;6161645;28;20046;-71
2023/03/17 06:36:21;;;;;;;6.72;4.82;;;;;;;;;;6146121;28;21149;-70
2023/03/17 06:39:40;;;;;;;11.63;4.72;;;;;;;;;;6136244;28;20352;-66
2023/03/17 06:42:42;;;;;;;11.48;4.70;;;;;;;;;;6126281;28;20063;-71
2023/03/17 06:45:44;;;;;;;9.25;4.60;;;;;;;;;;6120118;28;20307;-69
2023/03/17 06:48:47;;;;;;;10.40;4.50;;;;;;;;;;6169513;28;20062;-72
2023/03/17 06:51:50;;;;;;;9.70;4.60;;;;;;;;;;6171682;28;20064;-72
2023/03/17 06:55:01;;;;;;;7.78;5.10;;;;;;;;;;6172393;28;20466;-72
2023/03/17 06:58:03;;;;;;;9.13;5.07;;;;;;;;;;6170394;28;20070;-68
2023/03/17 07:01:16;;;;;;;11.88;4.78;;;;;;;;;;6176158;28;20058;-71
2023/03/17 07:04:22;;;;;;;9.57;5.07;;;;;;;;;;6235400;28;20057;-69
2023/03/17 07:07:24;;;;;;;10.80;5.28;;;;;;;;;;6276898;28;20302;-72
2023/03/17 07:10:26;;;;;;;9.15;4.80;;;;;;;;;;6338379;28;20054;-70
2023/03/17 07:13:28;;;;;;;11.25;5.18;;;;;;;;;;6341190;28;20054;-70
2023/03/17 07:16:31;;;;;;;10.55;5.00;;;;;;;;;;6343287;28;20112;-71
2023/03/17 07:19:35;;;;;;;9.73;4.33;;;;;;;;;;6337961;28;20075;-72
2023/03/17 07:22:37;;;;;;;16.35;4.93;;;;;;;;;;6338583;28;20036;-71
2023/03/17 07:25:42;;;;;;;9.23;5.00;;;;;;;;;;6339111;28;20409;-72
2023/03/17 07:28:44;;;;;;;9.32;4.47;;;;;;;;;;6338939;28;20173;-71
2023/03/17 07:31:47;;;;;;;9.60;4.50;;;;;;;;;;6337441;28;20067;-71
2023/03/17 07:34:50;;;;;;;7.50;5.07;;;;;;;;;;6327826;28;20085;-71
2023/03/17 07:37:52;;;;;;;9.27;4.15;;;;;;;;;;6322609;28;20284;-71
2023/03/17 07:41:00;;;;;;;8.35;4.80;;;;;;;;;;6331139;28;20039;-70
2023/03/17 07:44:02;;;;;;;11.50;4.93;;;;;;;;;;6338964;28;20070;-71
2023/03/17 07:47:05;;;;;;;10.23;4.78;;;;;;;;;;6337316;28;20075;-72
2023/03/17 07:50:09;;;;;;;13.23;4.07;;;;;;;;;;6337590;28;20049;-73
2023/03/17 07:53:13;;;;;;;8.00;3.72;;;;;;;;;;6336832;28;20099;-71
2023/03/17 07:56:16;;;;;;;7.55;4.30;;;;;;;;;;6338472;27;20044;-72
2023/03/17 07:59:21;;;;;;;6.07;3.05;;;;;;;;;;6324622;28;20122;-68
2023/03/17 08:02:23;;;;;;;7.63;2.95;;;;;;;;;;6340123;27;20642;-71
2023/03/17 08:05:28;;;;;;;5.78;2.95;;;;;;;;;;6339783;27;20117;-71
2023/03/17 08:08:30;;;;;;;4.35;2.60;;;;;;;;;;6337307;28;20043;-71
2023/03/17 08:11:32;;;;;;;6.15;2.75;;;;;;;;;;6336148;27;20085;-71
2023/03/17 08:14:34;;;;;;;6.57;3.30;;;;;;;;;;6341098;27;20043;-72
2023/03/17 08:17:36;;;;;;;6.68;3.45;;;;;;;;;;6340477;27;20059;-71
2023/03/17 08:20:40;;;;;;;6.03;3.38;;;;;;;;;;6332962;27;20105;-72
2023/03/17 08:23:43;;;;;;;5.40;3.28;;;;;;;;;;6329679;28;20051;-71
2023/03/17 08:26:48;;;;;;;6.03;2.60;;;;;;;;;;6342525;28;20244;-71
2023/03/17 08:30:03;;;;;;;5.22;2.45;;;;;;;;;;6339533;28;20048;-72
2023/03/17 08:36:44;;;;;;;5.05;2.55;;;;;;;;;;6339133;27;20467;-70
2023/03/17 08:39:46;;;;;;;3.60;2.30;;;;;;;;;;6340081;27;20115;-67
2023/03/17 08:42:49;;;;;;;4.15;2.30;;;;;;;;;;6325464;28;20248;-72
2023/03/17 08:45:51;;;;;;;5.50;2.75;;;;;;;;;;6335150;28;20565;-72
2023/03/17 08:48:55;;;;;;;4.93;2.83;;;;;;;;;;6356792;27;20097;-72
2023/03/17 08:51:58;;;;;;;5.05;3.13;;;;;;;;;;6364226;27;20048;-71
2023/03/17 08:55:05;;;;;;;6.07;3.00;;;;;;;;;;6363305;27;20112;-69
2023/03/17 08:58:10;;;;;;;6.47;2.92;;;;;;;;;;6361192;27;20059;-72
2023/03/17 09:01:13;;;;;;;4.43;2.47;;;;;;;;;;6346764;27;20094;-71
2023/03/17 09:04:18;;;;;;;3.95;2.90;;;;;;;;;;6361956;27;20047;-72
2023/03/17 09:07:30;;;;;;;5.72;2.70;;;;;;;;;;6362506;27;20065;-71
2023/03/17 09:10:32;;;;;;;4.00;2.80;;;;;;;;;;6361313;27;20100;-72
2023/03/17 09:13:36;;;;;;;5.22;3.30;;;;;;;;;;6362441;27;20074;-72
2023/03/17 09:16:38;;;;;;;4.97;2.88;;;;;;;;;;6360720;27;20107;-71
2023/03/17 09:19:40;;;;;;;4.88;2.83;;;;;;;;;;6363419;27;20243;-71
2023/03/17 09:22:44;;;;;;;4.63;2.78;;;;;;;;;;6341548;27;20055;-71
2023/03/17 09:25:48;;;;;;;9.43;3.45;;;;;;;;;;6351385;27;20103;-73
2023/03/17 09:28:50;;;;;;;9.80;3.38;;;;;;;;;;6364171;27;20043;-72
2023/03/17 09:31:52;;;;;;;8.35;3.72;;;;;;;;;;6350498;27;20079;-71
2023/03/17 09:34:54;;;;;;;6.03;4.03;;;;;;;;;;6361844;27;20069;-71
2023/03/17 09:37:58;;;;;;;7.22;3.90;;;;;;;;;;6360692;27;20066;-71
2023/03/17 09:41:10;;;;;;;6.13;3.55;;;;;;;;;;6365222;27;20054;-68
2023/03/17 09:44:21;;;;;;;7.22;3.50;;;;;;;;;;6363414;27;20106;-72
2023/03/17 09:47:46;;;;;;;9.32;3.70;;;;;;;;;;6349040;27;20135;-68
2023/03/17 09:50:55;;;;;;;7.20;3.65;;;;;;;;;;6335235;28;20075;-72
2023/03/17 09:54:07;;;;;;;5.53;3.03;;;;;;;;;;6327697;27;20059;-72
2023/03/17 09:57:23;;;;;;;;;;;;;;;;;;;;;
2023/03/17 10:00:28;;;;;;;5.80;3.28;;;;;;;;;;6335641;28;20044;-71
2023/03/17 10:03:31;;;;;;;5.57;3.17;;;;;;;;;;6337480;27;20147;-70
2023/03/17 10:06:35;;;;;;;6.35;3.90;;;;;;;;;;6333972;28;20048;-71
2023/03/17 10:09:40;;;;;;;;;;;;;;;;;;6332542;28;20107;-71
2023/03/17 10:13:10;;;;;;;4.63;3.30;;;;;;;;;;6335974;28;20284;-71
2023/03/17 10:16:14;;;;;;;7.88;3.58;;;;;;;;;;6333591;28;20063;-71
2023/03/17 10:19:22;;;;;;;4.47;3.45;;;;;;;;;;6335462;28;20060;-72
2023/03/17 10:22:29;;;;;;;5.50;3.72;;;;;;;;;;6340306;28;20051;-72
2023/03/17 10:25:35;;;;;;;5.72;2.90;;;;;;;;;;6336899;28;20044;-72
2023/03/17 10:28:37;;;;;;;8.50;4.05;;;;;;;;;;6336398;27;20052;-72
2023/03/17 10:31:39;;;;;;;7.38;4.05;;;;;;;;;;6335835;28;20229;-70
2023/03/17 10:34:42;;;;;;;8.70;4.15;;;;;;;;;;6335910;28;20240;-71
2023/03/17 10:37:47;;;;;;;6.50;3.80;;;;;;;;;;6336496;28;20209;-72
2023/03/17 10:40:58;;;;;;;8.90;3.95;;;;;;;;;;6335097;28;20058;-71
2023/03/17 10:44:00;;;;;;;7.43;3.90;;;;;;;;;;6337732;27;20048;-71
2023/03/17 10:47:02;;;;;;;6.15;3.60;;;;;;;;;;6333946;27;20056;-72
2023/03/17 10:50:19;;;;;;;6.97;4.30;;;;;;;;;;6356786;27;20257;-71
2023/03/17 10:53:26;;;;;;;5.90;3.80;;;;;;;;;;6366657;27;20055;-72
2023/03/17 10:56:34;;;;;;;8.52;4.35;;;;;;;;;;6362206;27;20224;-71
2023/03/17 10:59:38;;;;;;;6.22;4.28;;;;;;;;;;6362286;27;20075;-72
2023/03/17 11:02:44;;;;;;;8.95;4.65;;;;;;;;;;6367166;27;20057;-70
2023/03/17 11:05:56;;;;;;;7.22;4.28;;;;;;;;;;6365260;27;20044;-72
2023/03/17 11:09:07;;;;;;;6.22;4.30;;;;;;;;;;6356221;27;20205;-69
2023/03/17 11:12:22;;;;;;;6.43;3.95;;;;;;;;;;6352214;27;20054;-71
2023/03/17 11:15:29;;;;;;;7.53;4.22;;;;;;;;;;6365615;27;20067;-73
2023/03/17 11:18:35;;;;;;;6.82;4.28;;;;;;;;;;6356199;27;20138;-71
2023/03/17 11:21:46;;;;;;;8.90;4.47;;;;;;;;;;6360444;27;20278;-73
2023/03/17 11:24:57;;;;;;;8.65;4.93;;;;;;;;;;6368094;27;20047;-70
2023/03/17 11:28:15;;;;;;;6.88;4.03;;;;;;;;;;6366335;27;20052;-69
2023/03/17 11:31:20;;;;;;;7.05;4.18;;;;;;;;;;6362930;27;20051;-66
2023/03/17 11:34:32;;;;;;;8.75;4.65;;;;;;;;;;6364314;27;20201;-72
2023/03/17 11:37:49;;;;;;;8.00;4.10;;;;;;;;;;6357036;27;20047;-72
2023/03/17 11:41:14;;;;;;;6.00;4.38;;;;;;;;;;6366410;27;20162;-72
2023/03/17 11:44:36;;;;;;;7.68;4.75;;;;;;;;;;6364941;27;20046;-71
2023/03/17 11:48:13;;;;;;;7.78;5.15;;;;;;;;;;6363517;27;20047;-71
2023/03/17 11:51:26;;;;;;;6.25;4.43;;;;;;;;;;6361428;27;20039;-72
2023/03/17 11:54:40;;;;;;;8.52;4.68;;;;;;;;;;6365648;27;20235;-72
2023/03/17 11:57:46;;;;;;;6.97;4.68;;;;;;;;;;6363908;27;20050;-72
2023/03/17 12:01:15;;;;;;;9.85;5.13;;;;;;;;;;6363478;27;20048;-73
2023/03/17 12:04:24;;;;;;;6.95;4.90;;;;;;;;;;6364067;27;20066;-73
2023/03/17 12:07:29;;;;;;;6.80;4.78;;;;;;;;;;6360893;27;20059;-72
2023/03/17 12:10:35;;;;;;;14.93;5.70;;;;;;;;;;6360532;27;20047;-73
2023/03/17 12:13:40;;;;;;;7.18;5.15;;;;;;;;;;6363566;27;20097;-74
2023/03/17 12:16:47;;;;;;;8.35;5.22;;;;;;;;;;6365138;27;20062;-73
2023/03/17 12:20:11;;;;;;;8.65;5.55;;;;;;;;;;6362133;27;20055;-74
2023/03/17 12:23:17;;;;;;;9.18;5.35;;;;;;;;;;6363898;27;20165;-72
2023/03/17 12:26:22;;;;;;;8.15;5.25;;;;;;;;;;6366340;27;20043;-73
2023/03/17 12:29:34;;;;;;;8.30;5.32;;;;;;;;;;6361459;27;20063;-72
2023/03/17 12:32:40;;;;;;;9.68;5.95;;;;;;;;;;6364166;27;20043;-68
2023/03/17 12:35:42;;;;;;;9.35;5.10;;;;;;;;;;6363015;27;20111;-72
2023/03/17 12:38:49;;;;;;;8.85;5.85;;;;;;;;;;6361852;27;20059;-72
2023/03/17 12:42:05;;;;;;;9.23;6.03;;;;;;;;;;6364569;27;20052;-71
2023/03/17 12:45:26;;;;;;;8.98;5.50;;;;;;;;;;6353620;27;20043;-71
2023/03/17 12:48:52;;;;;;;11.45;5.75;;;;;;;;;;6361602;27;20236;-71
2023/03/17 12:52:06;;;;;;;7.72;5.85;;;;;;;;;;6348441;27;20055;-70
2023/03/17 12:55:13;;;;;;;7.40;5.97;;;;;;;;;;6363567;27;20135;-71
2023/03/17 12:58:26;;;;;;;7.35;5.60;;;;;;;;;;6363461;27;20074;-70
2023/03/17 13:01:37;;;;;;;11.07;6.40;;;;;;;;;;6361937;27;20047;-72
2023/03/17 13:04:52;;;;;;;9.70;6.05;;;;;;;;;;6355860;27;20093;-69
2023/03/17 13:07:56;;;;;;;9.88;6.18;;;;;;;;;;6362166;27;20136;-70
2023/03/17 13:11:16;;;;;;;8.35;6.13;;;;;;;;;;6354627;27;20055;-70
2023/03/17 13:14:25;;;;;;;8.68;5.97;;;;;;;;;;6362558;27;20262;-69
2023/03/17 13:17:32;;;;;;;7.57;6.10;;;;;;;;;;6360908;27;20047;-68
2023/03/17 13:20:43;;;;;;;7.35;5.97;;;;;;;;;;6363458;27;20061;-72
2023/03/17 13:23:56;;;;;;;7.45;5.82;;;;;;;;;;6363148;27;20474;-71
2023/03/17 13:27:09;;;;;;;7.90;5.97;;;;;;;;;;6362813;27;20065;-71
2023/03/17 13:30:48;;;;;;;7.50;5.90;;;;;;;;;;6363614;27;20043;-71
2023/03/17 13:34:03;;;;;;;;;;;;;;;;;;;;;
2023/03/17 13:37:17;;;;;;;8.25;6.38;;;;;;;;;;6358596;27;20269;-69
2023/03/17 13:40:21;;;;;;;11.68;6.30;;;;;;;;;;6361780;27;20055;-69
2023/03/17 13:43:46;;;;;;;9.52;6.70;;;;;;;;;;6352002;27;20058;-72
2023/03/17 13:46:48;;;;;;;8.43;6.60;;;;;;;;;;6361606;27;20043;-71
2023/03/17 13:49:51;;;;;;;97.43;56.60;;;;;;;;;;6357042;27;20044;-70
2023/03/17 13:52:56;;;;;;;29.90;19.65;;;;;;;;;;6361939;27;20055;-76
2023/03/17 13:56:13;;;;;;;42.55;24.65;;;;;;;;;;6364746;27;20050;-77
2023/03/17 13:59:17;;;;;;;29.65;19.23;;;;;;;;;;6364308;27;20073;-76
2023/03/17 14:02:20;;;;;;;10.73;7.97;;;;;;;;;;6365162;27;20066;-70
2023/03/17 14:05:26;;;;;;;12.88;9.65;;;;;;;;;;6354302;27;20066;-73
2023/03/17 14:08:31;;;;;;;10.48;7.38;;;;;;;;;;6362096;27;20110;-72
2023/03/17 14:11:36;;;;;;;10.32;7.25;;;;;;;;;;6362739;27;20047;-73
2023/03/17 14:14:43;;;;;;;10.10;7.28;;;;;;;;;;6349945;27;20080;-68
2023/03/17 14:17:46;;;;;;;11.13;7.95;;;;;;;;;;6359883;27;20265;-72
2023/03/17 14:20:54;;;;;;;;;;;;;;;;;;6363551;27;20055;-73
2023/03/17 14:23:59;;;;;;;10.73;6.90;;;;;;;;;;6337398;27;19999;-72
2023/03/17 14:27:06;;;;;;;9.07;7.07;;;;;;;;;;6353189;27;20058;-76
2023/03/17 14:30:17;;;;;;;10.52;6.68;;;;;;;;;;6360259;27;20212;-67
2023/03/17 14:33:22;;;;;;;8.55;7.60;;;;;;;;;;6361337;27;20050;-72
2023/03/17 14:36:25;;;;;;;11.77;7.05;;;;;;;;;;6358991;27;20239;-73
2023/03/17 14:39:28;;;;;;;9.85;7.10;;;;;;;;;;6351666;27;20051;-74
2023/03/17 14:42:31;;;;;;;10.88;7.22;;;;;;;;;;6353128;27;20060;-76
2023/03/17 14:45:48;;;;;;;9.63;7.43;;;;;;;;;;6358709;27;20055;-73
2023/03/17 14:48:57;;;;;;;9.30;7.30;;;;;;;;;;6358826;27;20055;-74
2023/03/17 14:51:59;;;;;;;9.23;7.50;;;;;;;;;;6361239;27;20058;-74
2023/03/17 14:55:07;;;;;;;11.57;7.70;;;;;;;;;;6362574;28;20565;-75
2023/03/17 14:58:10;;;;;;;13.75;7.60;;;;;;;;;;6359930;28;20035;-72
2023/03/17 15:01:16;;;;;;;9.43;7.07;;;;;;;;;;6360919;28;20062;-75
2023/03/17 15:04:20;;;;;;;9.00;7.40;;;;;;;;;;6360599;28;20050;-74
2023/03/17 15:07:31;;;;;;;13.48;8.10;;;;;;;;;;6363515;28;20083;-73
2023/03/17 15:10:42;;;;;;;10.40;7.85;;;;;;;;;;6358367;28;20044;-71
2023/03/17 15:14:05;;;;;;;10.25;7.60;;;;;;;;;;6359416;28;20055;-70
2023/03/17 15:17:13;;;;;;;;;;;;;;;;;;6361089;28;20058;-71
2023/03/17 15:20:16;;;;;;;9.32;7.38;;;;;;;;;;6359742;28;19922;-74
2023/03/17 15:23:20;;;;;;;12.85;7.93;;;;;;;;;;6359643;28;20077;-72
2023/03/17 15:26:31;;;;;;;9.43;7.63;;;;;;;;;;6354914;28;20157;-72
2023/03/17 15:29:33;;;;;;;8.80;7.40;;;;;;;;;;6363939;27;20051;-72
2023/03/17 15:32:35;;;;;;;10.65;8.25;;;;;;;;;;6365851;27;20104;-70
2023/03/17 15:35:37;;;;;;;8.57;7.45;;;;;;;;;;6365303;27;20132;-71
2023/03/17 15:38:39;;;;;;;11.27;8.07;;;;;;;;;;6364213;27;20060;-73
2023/03/17 15:41:42;;;;;;;11.93;7.47;;;;;;;;;;6363218;27;20048;-71
2023/03/17 15:44:44;;;;;;;12.50;7.38;;;;;;;;;;6357339;27;20059;-72
2023/03/17 15:47:46;;;;;;;12.07;6.78;;;;;;;;;;6352623;27;20056;-71
2023/03/17 15:50:48;;;;;;;9.75;7.03;;;;;;;;;;6363382;27;20050;-70
2023/03/17 15:53:50;;;;;;;9.00;7.47;;;;;;;;;;6361698;27;20075;-72
2023/03/17 15:56:53;;;;;;;8.95;6.82;;;;;;;;;;6365026;27;20062;-68
2023/03/17 16:00:01;;;;;;;10.05;7.40;;;;;;;;;;6356852;27;20047;-72
2023/03/17 16:03:07;;;;;;;10.00;7.50;;;;;;;;;;6355335;27;20375;-70
2023/03/17 16:06:15;;;;;;;12.23;7.00;;;;;;;;;;6362572;27;20073;-72
2023/03/17 16:09:17;;;;;;;9.90;7.13;;;;;;;;;;6362300;27;20112;-70
2023/03/17 16:12:20;;;;;;;10.68;7.25;;;;;;;;;;6362735;27;20052;-72
2023/03/17 16:15:24;;;;;;;10.70;7.07;;;;;;;;;;6363706;27;20058;-73
2023/03/17 16:18:30;;;;;;;10.60;7.45;;;;;;;;;;6363513;27;20126;-72
2023/03/17 16:21:32;;;;;;;9.43;6.93;;;;;;;;;;6365988;27;20282;-71
2023/03/17 16:24:34;;;;;;;10.63;7.20;;;;;;;;;;6362073;27;20119;-72
2023/03/17 16:27:37;;;;;;;11.10;7.78;;;;;;;;;;6360524;27;20127;-71
2023/03/17 16:30:40;;;;;;;9.85;7.20;;;;;;;;;;6363577;27;20043;-70
2023/03/17 16:33:42;;;;;;;13.15;7.32;;;;;;;;;;6362854;27;20039;-72
2023/03/17 16:36:55;;;;;;;10.65;7.53;;;;;;;;;;6364563;27;20065;-71
2023/03/17 16:39:57;;;;;;;12.50;8.05;;;;;;;;;;6362776;27;20239;-71
2023/03/17 16:43:01;;;;;;;10.27;6.45;;;;;;;;;;6354876;27;20286;-69
2023/03/17 16:46:05;;;;;;;9.63;6.90;;;;;;;;;;6353809;27;20054;-72
2023/03/17 16:49:07;;;;;;;11.77;7.10;;;;;;;;;;6364303;27;20063;-73
2023/03/17 16:52:10;;;;;;;10.50;6.68;;;;;;;;;;6364147;27;20214;-70
2023/03/17 16:55:12;;;;;;;14.23;7.77;;;;;;;;;;6362598;27;20178;-73
2023/03/17 16:58:19;;;;;;;11.02;7.75;;;;;;;;;;6363415;27;20050;-72
2023/03/17 17:01:23;;;;;;;10.68;7.63;;;;;;;;;;6364768;27;20235;-70
2023/03/17 17:04:25;;;;;;;14.30;7.75;;;;;;;;;;6362769;27;20055;-71
2023/03/17 17:07:27;;;;;;;13.93;7.93;;;;;;;;;;6358489;27;20060;-70
2023/03/17 17:10:31;;;;;;;9.88;7.60;;;;;;;;;;6358358;27;20088;-73
2023/03/17 17:13:36;;;;;;;9.40;7.25;;;;;;;;;;6361871;27;20043;-73
2023/03/17 17:16:39;;;;;;;8.90;6.68;;;;;;;;;;6367033;27;20044;-72
2023/03/17 17:19:41;;;;;;;12.30;7.03;;;;;;;;;;6361794;27;20054;-72
2023/03/17 17:22:43;;;;;;;11.07;7.72;;;;;;;;;;6355620;27;20050;-71
2023/03/17 17:25:45;;;;;;;9.98;7.50;;;;;;;;;;6359151;27;20458;-71
2023/03/17 17:28:48;;;;;;;11.88;7.57;;;;;;;;;;6354223;27;20056;-71
2023/03/17 17:31:50;;;;;;;10.38;7.43;;;;;;;;;;6361941;27;20047;-68
2023/03/17 17:34:52;;;;;;;11.82;6.60;;;;;;;;;;6362139;27;20066;-69
2023/03/17 17:37:54;;;;;;;11.63;7.20;;;;;;;;;;6360163;27;20047;-72
2023/03/17 17:40:57;;;;;;;11.05;6.70;;;;;;;;;;6362810;27;20064;-71
2023/03/17 17:44:00;;;;;;;9.27;6.90;;;;;;;;;;6353223;27;20231;-67
2023/03/17 17:47:02;;;;;;;12.30;6.90;;;;;;;;;;6350364;27;20473;-71
2023/03/17 17:50:05;;;;;;;9.90;6.75;;;;;;;;;;6325528;28;20051;-69
2023/03/17 17:53:10;;;;;;;13.67;6.10;;;;;;;;;;6335745;27;20043;-67
2023/03/17 17:56:14;;;;;;;10.68;7.10;;;;;;;;;;6334976;28;20258;-68
2023/03/17 17:59:17;;;;;;;;;;;;;;;;;;6333754;28;20062;-70
2023/03/17 18:02:19;;;;;;;11.52;6.85;;;;;;;;;;6335868;28;19930;-68
2023/03/17 18:05:21;;;;;;;11.75;7.40;;;;;;;;;;6331506;28;20378;-67
2023/03/17 18:08:24;;;;;;;9.57;6.50;;;;;;;;;;6334902;28;20063;-69
2023/03/17 18:11:26;;;;;;;10.68;5.95;;;;;;;;;;6331069;28;20048;-69
2023/03/17 18:14:29;;;;;;;13.88;6.82;;;;;;;;;;6332513;28;20100;-70
2023/03/17 18:17:31;;;;;;;10.53;7.07;;;;;;;;;;6333948;28;20059;-70
2023/03/17 18:20:32;;;;;;;11.07;6.07;;;;;;;;;;6332363;28;20065;-68
2023/03/17 18:23:35;;;;;;;14.32;6.63;;;;;;;;;;6336734;28;20344;-69
2023/03/17 18:26:37;;;;;;;9.10;5.95;;;;;;;;;;6334460;28;20075;-70
2023/03/17 18:29:40;;;;;;;8.90;6.18;;;;;;;;;;6334676;28;20052;-68
2023/03/17 18:32:42;;;;;;;12.30;6.78;;;;;;;;;;6344859;28;20055;-69
2023/03/17 18:35:49;;;;;;;8.98;5.97;;;;;;;;;;6339797;28;20056;-68
2023/03/17 18:38:54;;;;;;;15.60;6.90;;;;;;;;;;6339950;28;20106;-68
2023/03/17 18:41:57;;;;;;;13.20;6.75;;;;;;;;;;6339721;28;20071;-69
2023/03/17 18:45:22;;;;;;;12.07;6.70;;;;;;;;;;6341202;28;20078;-69
2023/03/17 18:48:24;;;;;;;11.57;6.03;;;;;;;;;;6337277;27;20055;-70
2023/03/17 18:51:26;;;;;;;10.48;5.97;;;;;;;;;;6340840;28;20089;-68
2023/03/17 18:54:30;;;;;;;10.40;7.07;;;;;;;;;;6344257;28;20335;-69
2023/03/17 18:57:32;;;;;;;11.60;6.80;;;;;;;;;;6339087;27;20232;-70
2023/03/17 19:00:38;;;;;;;8.50;6.55;;;;;;;;;;6328597;28;20344;-69
2023/03/17 19:04:07;;;;;;;13.50;6.22;;;;;;;;;;6314044;28;20072;-68
2023/03/17 19:07:09;;;;;;;13.50;7.03;;;;;;;;;;6284067;28;20060;-67
2023/03/17 19:10:12;;;;;;;9.43;6.70;;;;;;;;;;6272411;28;20054;-68
2023/03/17 19:13:27;;;;;;;10.23;6.50;;;;;;;;;;6283302;28;20114;-68
2023/03/17 19:23:31;;;;;;;13.32;6.55;;;;;;;;;;6272064;28;20048;-69
2023/03/17 19:26:32;;;;;;;18.30;6.72;;;;;;;;;;6283306;28;20110;-69
2023/03/17 19:29:34;;;;;;;20.55;6.57;;;;;;;;;;6305055;28;20067;-67
2023/03/17 19:32:53;;;;;;;11.32;6.53;;;;;;;;;;6291969;28;20283;-70
2023/03/17 19:35:58;;;;;;;10.90;6.75;;;;;;;;;;6301063;28;20126;-69
2023/03/17 19:39:00;;;;;;;13.23;7.57;;;;;;;;;;6340780;27;20056;-70
2023/03/17 19:42:04;;;;;;;15.07;9.23;;;;;;;;;;6339196;27;20044;-70
2023/03/17 19:45:07;;;;;;;30.88;19.65;;;;;;;;;;6347802;27;20060;-70
2023/03/17 19:48:11;;;;;;;32.45;18.58;;;;;;;;;;6354357;27;20103;-70